Time;durP1;ratioP1;P1;durP2;ratioP2;P2;SDS_P1;SDS_P2;PMS_P1;PMS_P2;Temp;Humidity;BMP_temperature;BMP_pressure;BME280_temperature;BME280_humidity;BME280_pressure;Samples;Min_cycle;Max_cycle;Signal;HPM_P1;HPM_P2
2023/01/09 00:01:20;;;;;;;11.30;9.60;;;;;;;6.37;100.00;95036.00;4966613;28;20180;-75
2023/01/09 00:03:46;;;;;;;10.10;9.20;;;;;;;6.39;100.00;95023.56;4973134;28;20232;-74
2023/01/09 00:06:11;;;;;;;10.50;9.50;;;;;;;6.38;100.00;95027.97;4973366;28;20196;-74
2023/01/09 00:08:36;;;;;;;11.07;10.07;;;;;;;6.45;100.00;95030.41;4973182;28;20648;-73
2023/01/09 00:11:02;;;;;;;11.23;10.23;;;;;;;6.50;100.00;95033.84;4972678;28;20200;-73
2023/01/09 00:13:27;;;;;;;10.43;9.53;;;;;;;6.51;100.00;95034.63;4973259;28;20291;-74
2023/01/09 00:15:52;;;;;;;10.50;9.50;;;;;;;6.50;100.00;95033.84;4973104;28;20196;-75
2023/01/09 00:18:18;;;;;;;9.73;8.93;;;;;;;6.55;100.00;95033.88;4972983;28;20336;-74
2023/01/09 00:20:43;;;;;;;8.97;8.17;;;;;;;6.52;100.00;95033.59;4973173;28;20711;-74
2023/01/09 00:23:08;;;;;;;8.63;7.93;;;;;;;6.55;100.00;95026.09;4965260;28;20262;-74
2023/01/09 00:25:34;;;;;;;9.40;8.60;;;;;;;6.61;100.00;95030.31;4973349;28;20194;-74
2023/01/09 00:28:00;;;;;;;10.67;7.70;;;;;;;6.57;100.00;95031.06;4972607;28;20329;-74
2023/01/09 00:30:25;;;;;;;8.07;7.13;;;;;;;6.61;100.00;95030.31;4973179;28;20199;-74
2023/01/09 00:32:50;;;;;;;7.37;6.70;;;;;;;6.63;100.00;95030.84;4972603;28;20576;-74
2023/01/09 00:35:17;;;;;;;8.10;7.37;;;;;;;6.65;100.00;95025.41;4973441;28;20204;-74
2023/01/09 00:37:43;;;;;;;7.57;6.97;;;;;;;6.63;100.00;95030.09;4972777;28;20731;-74
2023/01/09 00:40:10;;;;;;;7.80;7.20;;;;;;;6.65;100.00;95039.19;4972739;28;20225;-74
2023/01/09 00:42:36;;;;;;;7.70;7.10;;;;;;;6.70;100.00;95035.84;4972882;28;20185;-74
2023/01/09 00:45:08;;;;;;;7.80;7.20;;;;;;;6.70;100.00;95043.66;4972864;28;20195;-74
2023/01/09 00:47:41;;;;;;;6.33;5.93;;;;;;;6.70;100.00;95043.66;4972447;28;20654;-74
2023/01/09 00:50:12;;;;;;;6.40;5.90;;;;;;;6.79;100.00;95044.81;4970249;28;20255;-74
2023/01/09 00:52:39;;;;;;;7.07;6.57;;;;;;;6.77;100.00;95048.69;4972641;28;20690;-74
2023/01/09 00:55:05;;;;;;;7.43;6.93;;;;;;;6.82;100.00;95035.72;4970962;28;20557;-74
2023/01/09 00:57:31;;;;;;;6.13;5.73;;;;;;;6.74;100.00;95036.97;4973096;28;20640;-74
2023/01/09 00:59:58;;;;;;;5.47;5.17;;;;;;;6.79;100.00;95033.63;4972787;28;20192;-74
2023/01/09 01:02:23;;;;;;;5.70;5.40;;;;;;;6.77;100.00;95040.88;4972628;28;20188;-74
2023/01/09 01:07:38;;;;;;;5.53;5.17;;;;;;;6.85;100.00;95035.25;4972649;28;20651;-74
2023/01/09 01:10:15;;;;;;;5.73;5.33;;;;;;;6.75;100.00;95032.50;4940277;28;20294;-74
2023/01/09 01:12:41;;;;;;;5.77;5.40;;;;;;;6.82;100.00;95027.91;4972905;28;20201;-74
2023/01/09 01:15:08;;;;;;;5.00;4.70;;;;;;;6.84;100.00;95034.44;4972943;28;20212;-74
2023/01/09 01:17:35;;;;;;;5.17;4.87;;;;;;;6.78;100.00;95025.00;4972583;28;20211;-74
2023/01/09 01:20:01;;;;;;;4.60;4.40;;;;;;;6.81;100.00;95021.91;4972619;28;20184;-74
2023/01/09 01:22:27;;;;;;;4.97;4.70;;;;;;;6.84;100.00;95031.06;4972848;28;20678;-74
2023/01/09 01:24:52;;;;;;;5.07;4.87;;;;;;;6.81;100.00;95024.50;4958771;28;20278;-75
2023/01/09 01:27:17;;;;;;;5.03;4.83;;;;;;;6.74;100.00;95021.34;4975820;28;20185;-74
2023/01/09 01:29:43;;;;;;;5.10;4.80;;;;;;;6.78;100.00;95022.41;4976021;28;20184;-74
2023/01/09 01:32:08;;;;;;;4.93;4.63;;;;;;;6.84;100.00;95026.63;4976445;28;20193;-75
2023/01/09 01:34:33;;;;;;;4.67;4.47;;;;;;;6.77;100.00;95017.44;4975043;28;20235;-73
2023/01/09 01:36:59;;;;;;;4.77;4.47;;;;;;;6.85;100.00;95015.19;4975907;28;20185;-74
2023/01/09 01:39:24;;;;;;;4.20;4.00;;;;;;;6.77;100.00;95018.22;4976122;28;20184;-74
2023/01/09 01:41:49;;;;;;;4.77;4.57;;;;;;;6.82;100.00;95014.88;4975954;28;20192;-74
2023/01/09 01:44:52;;;;;;;5.07;4.87;;;;;;;6.78;100.00;95006.00;4975539;28;20197;-74
2023/01/09 01:47:19;;;;;;;5.30;5.00;;;;;;;6.78;100.00;95019.81;4958298;28;20192;-74
2023/01/09 01:49:45;;;;;;;3.97;3.80;;;;;;;6.84;100.00;95012.84;4975564;28;20234;-74
2023/01/09 01:52:11;;;;;;;3.97;3.87;;;;;;;6.79;100.00;95005.75;4975854;28;20196;-74
2023/01/09 01:54:37;;;;;;;4.13;3.93;;;;;;;6.76;100.00;95005.44;4973624;28;20597;-73
2023/01/09 01:57:04;;;;;;;3.93;3.80;;;;;;;6.71;100.00;95014.00;4975382;28;20183;-73
2023/01/09 01:59:40;;;;;;;3.50;3.40;;;;;;;6.68;100.00;95032.72;4976026;28;20252;-74
2023/01/09 02:02:06;;;;;;;4.10;3.90;;;;;;;6.73;100.00;95030.19;4975669;28;20558;-74
2023/01/09 02:04:34;;;;;;;3.63;3.53;;;;;;;6.64;100.00;95037.63;4975036;28;20192;-74
2023/01/09 02:07:04;;;;;;;3.67;3.50;;;;;;;6.66;100.00;95038.19;4974795;28;20216;-74
2023/01/09 02:09:29;;;;;;;3.60;3.50;;;;;;;6.72;100.00;95028.59;4975070;28;20208;-74
2023/01/09 02:11:56;;;;;;;3.30;3.20;;;;;;;6.76;100.00;95021.88;4975196;28;20632;-74
2023/01/09 02:14:25;;;;;;;3.47;3.37;;;;;;;6.73;100.00;95016.38;4975409;28;20212;-74
2023/01/09 02:17:06;;;;;;;3.50;3.40;;;;;;;6.71;100.00;95014.00;4975139;28;20185;-74
2023/01/09 02:19:51;;;;;;;3.70;3.50;;;;;;;6.71;100.00;95013.22;4975410;28;20643;-74
2023/01/09 02:22:22;;;;;;;3.30;3.20;;;;;;;6.70;100.00;95007.22;4973793;28;20200;-74
2023/01/09 02:25:18;;;;;;;3.50;3.40;;;;;;;6.67;100.00;95018.94;4975346;28;20189;-75
2023/01/09 02:27:56;;;;;;;3.87;3.67;;;;;;;6.76;100.00;95002.84;4975074;28;20628;-74
2023/01/09 02:30:51;;;;;;;3.50;3.30;;;;;;;6.67;100.00;95011.13;4975053;28;20181;-74
2023/01/09 02:33:35;;;;;;;3.30;3.20;;;;;;;6.64;100.00;95008.19;4960850;28;20212;-75
2023/01/09 02:36:15;;;;;;;3.30;3.20;;;;;;;6.63;100.00;95007.41;4974712;28;20201;-75
2023/01/09 02:38:55;;;;;;;3.30;3.20;;;;;;;6.72;100.00;94994.75;4957350;28;20268;-75
2023/01/09 02:41:35;;;;;;;3.40;3.30;;;;;;;6.59;100.00;95014.16;4974823;28;20172;-75
2023/01/09 02:44:19;;;;;;;3.53;3.33;;;;;;;6.68;100.00;95033.53;4975126;28;20215;-75
2023/01/09 02:46:44;;;;;;;3.43;3.33;;;;;;;6.73;100.00;95032.78;4974411;28;20694;-75
2023/01/09 02:49:11;;;;;;;3.70;3.50;;;;;;;6.75;100.00;95035.91;4974607;28;20237;-74
2023/01/09 02:51:51;;;;;;;2.93;2.83;;;;;;;6.77;100.00;95030.47;4974531;28;20227;-75
2023/01/09 02:54:17;;;;;;;3.40;3.30;;;;;;;6.68;100.00;95030.13;4973479;28;20204;-75
2023/01/09 02:57:03;;;;;;;3.87;3.67;;;;;;;6.65;100.00;95041.81;4954915;28;20362;-75
2023/01/09 02:59:44;;;;;;;3.33;3.23;;;;;;;6.62;100.00;95031.91;4954641;29;20272;-74
2023/01/09 03:03:02;;;;;;;3.20;3.10;;;;;;;6.62;100.00;95037.09;4954048;29;20514;-74
2023/01/09 03:05:37;;;;;;;3.20;3.10;;;;;;;6.63;100.00;95049.06;4915145;29;20284;-74
2023/01/09 03:08:22;;;;;;;3.43;3.33;;;;;;;6.62;100.00;95055.31;4954660;29;20534;-75
2023/01/09 03:10:58;;;;;;;2.77;2.67;;;;;;;6.62;100.00;95062.34;4954905;29;20197;-74
2023/01/09 03:13:27;;;;;;;3.17;3.07;;;;;;;6.56;100.00;95055.50;4955174;29;20200;-74
2023/01/09 03:15:56;;;;;;;2.97;2.83;;;;;;;6.52;100.00;95059.63;4954820;29;20193;-74
2023/01/09 03:18:25;;;;;;;2.87;2.70;;;;;;;6.52;100.00;95060.38;4954612;29;20178;-74
2023/01/09 03:20:52;;;;;;;3.20;3.10;;;;;;;6.51;100.00;95063.25;4954606;28;20598;-74
2023/01/09 03:23:17;;;;;;;3.20;3.10;;;;;;;6.47;100.00;95054.34;4955049;29;20185;-74
2023/01/09 03:25:43;;;;;;;3.30;3.20;;;;;;;6.45;100.00;95041.59;4954760;29;20248;-74
2023/01/09 03:28:25;;;;;;;3.60;3.50;;;;;;;6.42;100.00;95051.69;4953593;29;20641;-74
2023/01/09 03:30:51;;;;;;;3.77;3.67;;;;;;;6.39;100.00;95060.78;4954907;29;20200;-74
2023/01/09 03:33:16;;;;;;;3.77;3.67;;;;;;;6.38;100.00;95068.81;4954277;29;20688;-74
2023/01/09 03:35:41;;;;;;;3.40;3.30;;;;;;;6.29;100.00;95070.28;4954443;29;20217;-74
2023/01/09 03:38:07;;;;;;;4.63;4.23;;;;;;;6.29;100.00;95083.28;4954486;29;20309;-74
2023/01/09 03:40:32;;;;;;;4.50;4.40;;;;;;;6.30;100.00;95095.28;4954804;29;20193;-75
2023/01/09 03:42:57;;;;;;;4.67;4.47;;;;;;;6.25;100.00;95096.75;4954316;29;20193;-74
2023/01/09 03:45:23;;;;;;;4.20;4.00;;;;;;;6.30;100.00;95100.47;4954187;28;20337;-74
2023/01/09 03:47:48;;;;;;;3.60;3.50;;;;;;;6.28;100.00;95111.13;4953689;29;20193;-74
2023/01/09 03:50:14;;;;;;;3.20;3.10;;;;;;;6.23;100.00;95122.25;4954308;29;20613;-74
2023/01/09 03:52:40;;;;;;;4.00;3.90;;;;;;;6.33;100.00;95126.00;4952721;29;20622;-74
2023/01/09 03:55:06;;;;;;;4.10;3.83;;;;;;;6.23;100.00;95130.03;4959171;28;20247;-75
2023/01/09 03:57:31;;;;;;;4.20;4.10;;;;;;;6.31;100.00;95136.63;4972334;28;20172;-75
2023/01/09 03:59:56;;;;;;;4.87;4.57;;;;;;;6.29;100.00;95143.91;4974049;28;20192;-75
2023/01/09 04:02:21;;;;;;;4.27;4.13;;;;;;;6.40;100.00;95150.81;4973400;28;20540;-74
2023/01/09 04:04:47;;;;;;;4.33;4.23;;;;;;;6.34;100.00;95158.78;4972333;28;20260;-74
2023/01/09 04:07:12;;;;;;;5.17;4.97;;;;;;;6.38;100.00;95168.47;4973152;28;20244;-75
2023/01/09 04:09:37;;;;;;;5.30;5.00;;;;;;;6.33;100.00;95178.03;4973191;28;20195;-75
2023/01/09 04:12:03;;;;;;;5.00;4.77;;;;;;;6.34;100.00;95187.41;4973323;28;20204;-75
2023/01/09 04:14:28;;;;;;;4.43;4.23;;;;;;;6.26;100.00;95209.41;4973346;28;20204;-75
2023/01/09 04:16:54;;;;;;;4.00;3.77;;;;;;;6.22;100.00;95229.91;4972995;28;20227;-74
2023/01/09 04:19:19;;;;;;;4.30;3.63;;;;;;;6.20;100.00;95233.78;4974079;28;20224;-75
2023/01/09 04:21:44;;;;;;;3.43;3.27;;;;;;;6.14;100.00;95240.72;4973094;28;20607;-75
2023/01/09 04:24:09;;;;;;;3.77;3.47;;;;;;;5.99;100.00;95240.47;4973441;28;20686;-75
2023/01/09 04:26:35;;;;;;;3.73;3.63;;;;;;;5.83;100.00;95247.22;4972923;28;20557;-75
2023/01/09 04:29:00;;;;;;;3.00;2.90;;;;;;;5.93;100.00;95248.41;4973073;28;20188;-75
2023/01/09 04:31:25;;;;;;;3.30;3.20;;;;;;;5.74;100.00;95259.00;4972642;28;20181;-75
2023/01/09 04:33:51;;;;;;;3.70;3.60;;;;;;;5.81;100.00;95258.84;4973391;28;20295;-75
2023/01/09 04:36:16;;;;;;;3.83;3.63;;;;;;;5.65;100.00;95257.00;4973251;28;20177;-75
2023/01/09 04:38:41;;;;;;;4.10;4.00;;;;;;;5.64;100.00;95268.41;4973242;28;20240;-75
2023/01/09 04:41:07;;;;;;;4.27;4.17;;;;;;;5.60;100.00;95275.91;4972271;28;20650;-74
2023/01/09 04:43:32;;;;;;;3.40;3.20;;;;;;;5.47;100.00;95265.78;4955775;28;20181;-75
2023/01/09 04:45:57;;;;;;;4.27;4.17;;;;;;;5.51;100.00;95272.09;4973281;28;20231;-75
2023/01/09 04:48:23;;;;;;;3.70;3.60;;;;;;;5.43;100.00;95280.25;4972844;28;20235;-75
2023/01/09 04:50:48;;;;;;;3.70;3.60;;;;;;;5.31;100.00;95277.69;4973126;28;20212;-74
2023/01/09 04:53:13;;;;;;;3.80;3.70;;;;;;;5.28;100.00;95283.38;4970974;28;20240;-74
2023/01/09 04:55:40;;;;;;;3.03;2.93;;;;;;;5.35;100.00;95289.19;4972711;28;20224;-74
2023/01/09 04:58:05;;;;;;;2.93;2.83;;;;;;;5.32;100.00;95289.66;4973442;28;20259;-74
2023/01/09 05:00:31;;;;;;;3.40;3.30;;;;;;;5.29;100.00;95289.34;4976632;28;20699;-74
2023/01/09 05:02:56;;;;;;;3.60;3.50;;;;;;;5.25;100.00;95285.59;4959125;28;20193;-74
2023/01/09 05:05:22;;;;;;;4.77;4.57;;;;;;;5.17;100.00;95281.59;4955274;29;20196;-74
2023/01/09 05:07:47;;;;;;;4.10;4.00;;;;;;;5.22;100.00;95283.50;4974713;28;20192;-74
2023/01/09 05:10:12;;;;;;;3.83;3.73;;;;;;;5.25;100.00;95296.78;4976877;28;20643;-74
2023/01/09 05:12:38;;;;;;;5.13;4.93;;;;;;;5.19;100.00;95294.31;4976255;28;20258;-74
2023/01/09 05:15:05;;;;;;;5.37;5.17;;;;;;;5.24;100.00;95310.03;4976534;28;20196;-74
2023/01/09 05:17:31;;;;;;;3.63;3.53;;;;;;;5.19;100.00;95312.50;4976484;28;20184;-74
2023/01/09 05:19:56;;;;;;;3.13;3.03;;;;;;;5.18;100.00;95322.13;4975937;28;20192;-74
2023/01/09 05:22:21;;;;;;;2.70;2.67;;;;;;;5.18;100.00;95331.72;4976334;28;20212;-74
2023/01/09 05:24:47;;;;;;;2.40;2.30;;;;;;;5.22;100.00;95338.81;4976133;28;20254;-74
2023/01/09 05:27:12;;;;;;;2.80;2.70;;;;;;;5.20;100.00;95353.03;4975241;28;20188;-74
2023/01/09 05:29:37;;;;;;;2.57;2.47;;;;;;;5.21;100.00;95352.81;4975484;28;20192;-74
2023/01/09 05:32:03;;;;;;;2.70;2.60;;;;;;;5.23;100.00;95363.78;4958852;28;20203;-75
2023/01/09 05:34:28;;;;;;;3.00;2.90;;;;;;;5.16;100.00;95365.69;4976378;28;20224;-74
2023/01/09 05:36:54;;;;;;;2.97;2.87;;;;;;;5.17;100.00;95379.47;4975870;28;20192;-74
2023/01/09 05:39:19;;;;;;;3.53;3.43;;;;;;;5.15;100.00;95381.50;4976558;28;20189;-74
2023/01/09 05:41:44;;;;;;;2.93;2.77;;;;;;;5.08;100.00;95389.41;4976107;28;20215;-74
2023/01/09 05:44:10;;;;;;;2.70;2.60;;;;;;;4.99;100.00;95398.56;4976074;28;20204;-74
2023/01/09 05:46:35;;;;;;;3.60;3.50;;;;;;;4.95;100.00;95398.22;4975789;28;20188;-74
2023/01/09 05:49:00;;;;;;;3.40;3.20;;;;;;;4.88;100.00;95404.53;4975686;28;20196;-74
2023/01/09 05:51:26;;;;;;;3.97;3.60;;;;;;;4.90;100.00;95410.31;4974645;28;20192;-74
2023/01/09 05:53:51;;;;;;;2.77;2.67;;;;;;;4.76;100.00;95409.72;4975861;28;20688;-74
2023/01/09 05:56:16;;;;;;;3.43;3.23;;;;;;;4.73;100.00;95419.75;4958470;28;20279;-75
2023/01/09 05:58:42;;;;;;;3.37;3.17;;;;;;;4.65;100.00;95413.06;4975560;28;20260;-74
2023/01/09 06:01:07;;;;;;;3.40;3.30;;;;;;;4.57;100.00;95410.78;4957856;28;20212;-74
2023/01/09 06:03:33;;;;;;;3.17;3.07;;;;;;;4.52;100.00;95415.84;4975117;28;20260;-74
2023/01/09 06:05:58;;;;;;;4.63;4.43;;;;;;;4.46;100.00;95411.56;4974946;28;20224;-74
2023/01/09 06:08:23;;;;;;;4.30;4.13;;;;;;;4.53;100.00;95412.25;4975409;28;20193;-74
2023/01/09 06:10:49;;;;;;;4.07;3.87;;;;;;;4.51;100.00;95424.69;4974874;28;20281;-74
2023/01/09 06:13:15;;;;;;;4.47;4.27;;;;;;;4.51;100.00;95430.63;4958397;28;20247;-74
2023/01/09 06:15:40;;;;;;;7.53;7.03;;;;;;;4.42;100.00;95428.56;4975348;28;20204;-75
2023/01/09 06:18:06;;;;;;;4.67;4.47;;;;;;;4.43;100.00;95425.78;4974547;28;20195;-74
2023/01/09 06:20:31;;;;;;;3.93;3.63;;;;;;;4.43;100.00;95423.19;4974562;28;20210;-74
2023/01/09 06:22:57;;;;;;;3.80;3.60;;;;;;;4.29;100.00;95426.94;4975404;28;20203;-74
2023/01/09 06:25:22;;;;;;;3.30;3.20;;;;;;;4.17;100.00;95424.34;4975455;28;20558;-75
2023/01/09 06:27:50;;;;;;;3.40;3.27;;;;;;;4.22;100.00;95425.47;4975008;28;20269;-75
2023/01/09 06:30:16;;;;;;;3.60;3.50;;;;;;;4.14;100.00;95429.94;4975306;28;20200;-75
2023/01/09 06:32:42;;;;;;;4.20;3.90;;;;;;;4.17;100.00;95439.91;4975104;28;20204;-75
2023/01/09 06:35:07;;;;;;;3.70;3.50;;;;;;;4.12;100.00;95437.16;4957276;28;20571;-75
2023/01/09 06:37:33;;;;;;;3.50;3.40;;;;;;;4.12;100.00;95438.97;4975115;28;20221;-75
2023/01/09 06:39:58;;;;;;;3.50;3.40;;;;;;;4.09;100.00;95436.81;4975263;28;20188;-75
2023/01/09 06:42:23;;;;;;;3.53;3.33;;;;;;;4.06;100.00;95451.00;4975203;28;20263;-75
2023/01/09 06:44:49;;;;;;;3.33;3.17;;;;;;;4.07;100.00;95441.41;4974810;28;20212;-74
2023/01/09 06:47:14;;;;;;;3.80;3.50;;;;;;;4.08;100.00;95441.19;4974164;28;20263;-75
2023/01/09 06:49:40;;;;;;;3.37;3.27;;;;;;;4.09;100.00;95449.78;4974664;28;20196;-72
2023/01/09 06:52:06;;;;;;;3.27;3.10;;;;;;;4.03;100.00;95445.47;4972559;28;20252;-71
2023/01/09 06:54:32;;;;;;;3.73;3.53;;;;;;;3.91;100.00;95452.38;4974925;28;20625;-71
2023/01/09 06:56:58;;;;;;;5.50;3.60;;;;;;;3.97;100.00;95461.88;4974439;28;20185;-71
2023/01/09 06:59:23;;;;;;;3.57;3.13;;;;;;;4.06;100.00;95458.00;4956479;28;20296;-71
2023/01/09 07:01:49;;;;;;;5.10;3.43;;;;;;;4.08;100.00;95461.16;4974437;28;20224;-71
2023/01/09 07:04:16;;;;;;;3.33;3.20;;;;;;;4.12;100.00;95459.72;4973103;28;20937;-71
2023/01/09 07:06:41;;;;;;;3.97;3.37;;;;;;;4.07;100.00;95464.75;4974481;28;20587;-71
2023/01/09 07:09:06;;;;;;;3.77;3.57;;;;;;;4.12;100.00;95462.31;4974105;28;20204;-71
2023/01/09 07:11:32;;;;;;;4.17;3.80;;;;;;;4.13;100.00;95464.66;4974119;28;20263;-71
2023/01/09 07:13:57;;;;;;;4.27;4.07;;;;;;;4.18;100.00;95454.44;4973476;28;20213;-71
2023/01/09 07:16:22;;;;;;;4.27;3.63;;;;;;;4.24;100.00;95460.53;4973408;28;20259;-71
2023/01/09 07:18:48;;;;;;;4.40;3.80;;;;;;;4.19;100.00;95460.41;4973454;28;20667;-70
2023/01/09 07:21:13;;;;;;;4.17;3.97;;;;;;;4.20;100.00;95459.41;4955375;28;20288;-73
2023/01/09 07:23:38;;;;;;;24.03;22.63;;;;;;;4.17;100.00;95460.66;4973642;28;20290;-73
2023/01/09 07:26:04;;;;;;;4.63;4.23;;;;;;;4.22;100.00;95457.38;4973489;28;20184;-73
2023/01/09 07:28:29;;;;;;;4.13;3.73;;;;;;;4.17;100.00;95465.03;4973879;28;20662;-72
2023/01/09 07:30:54;;;;;;;4.00;3.73;;;;;;;4.14;100.00;95476.63;4973983;28;20247;-72
2023/01/09 07:33:20;;;;;;;3.83;3.60;;;;;;;4.21;100.00;95476.53;4956012;28;20204;-72
2023/01/09 07:35:45;;;;;;;4.07;3.87;;;;;;;4.25;100.00;95475.09;4974261;28;20249;-73
2023/01/09 07:38:10;;;;;;;4.03;3.67;;;;;;;4.22;100.00;95469.56;4973854;28;20189;-73
2023/01/09 07:40:36;;;;;;;4.70;3.47;;;;;;;4.27;100.00;95472.28;4955974;28;20189;-72
2023/01/09 07:43:01;;;;;;;4.83;4.53;;;;;;;5.63;100.00;95478.16;4973747;28;20185;-71
2023/01/09 07:45:27;;;;;;;4.73;4.47;;;;;;;5.23;100.00;95482.47;4973128;28;20311;-71
2023/01/09 07:47:53;;;;;;;5.90;5.50;;;;;;;4.76;100.00;95479.78;4973145;28;20189;-71
2023/01/09 07:50:18;;;;;;;6.13;3.93;;;;;;;4.55;100.00;95477.69;4970961;28;20339;-72
2023/01/09 07:52:46;;;;;;;3.67;3.47;;;;;;;4.50;100.00;95483.56;4970759;28;20208;-72
2023/01/09 07:55:12;;;;;;;5.13;3.80;;;;;;;4.42;100.00;95488.25;4966964;28;20258;-71
2023/01/09 07:57:38;;;;;;;3.77;3.47;;;;;;;4.39;100.00;95488.69;4953767;29;20219;-71
2023/01/09 08:00:05;;;;;;;3.27;3.07;;;;;;;4.29;100.00;95491.78;4948647;29;20683;-72
2023/01/09 08:02:31;;;;;;;5.47;3.30;;;;;;;4.31;100.00;95502.75;4937014;29;20297;-72
2023/01/09 08:04:56;;;;;;;3.90;2.90;;;;;;;4.38;100.00;95505.25;4951348;29;20226;-72
2023/01/09 08:07:22;;;;;;;4.77;3.00;;;;;;;4.36;100.00;95496.91;4954235;29;20188;-72
2023/01/09 08:09:47;;;;;;;3.37;3.17;;;;;;;4.44;100.00;95504.38;4937013;29;20189;-72
2023/01/09 08:12:12;;;;;;;3.93;3.73;;;;;;;4.59;100.00;95504.78;4954010;29;20205;-72
2023/01/09 08:14:38;;;;;;;4.33;3.93;;;;;;;4.67;100.00;95498.50;4936825;29;20213;-72
2023/01/09 08:17:03;;;;;;;5.50;4.97;;;;;;;4.83;100.00;95503.03;4952660;29;20644;-72
2023/01/09 08:19:28;;;;;;;7.83;7.33;;;;;;;4.83;100.00;95501.25;4934371;28;20194;-72
2023/01/09 08:21:53;;;;;;;6.20;5.70;;;;;;;4.85;100.00;95499.19;4935034;29;20192;-72
2023/01/09 08:24:19;;;;;;;5.40;4.90;;;;;;;4.78;100.00;95502.94;4917930;29;20186;-72
2023/01/09 08:26:44;;;;;;;3.67;3.40;;;;;;;4.63;100.00;95505.13;4934710;29;20182;-72
2023/01/09 08:29:10;;;;;;;4.40;4.10;;;;;;;4.74;100.00;95499.16;4934881;29;20193;-72
2023/01/09 08:31:35;;;;;;;4.30;4.10;;;;;;;4.64;100.00;95504.91;4934527;29;20201;-72
2023/01/09 08:34:01;;;;;;;7.77;3.93;;;;;;;4.67;100.00;95507.06;4934098;29;20661;-72
2023/01/09 08:36:26;;;;;;;4.13;3.90;;;;;;;4.75;100.00;95501.56;4934792;29;20186;-71
2023/01/09 08:38:52;;;;;;;4.20;3.90;;;;;;;4.81;100.00;95505.06;4934612;29;20273;-72
2023/01/09 08:49:29;;;;;;;6.33;5.43;;;;;;;4.96;100.00;95505.44;4942980;29;20683;-72
2023/01/09 08:51:54;;;;;;;4.20;3.90;;;;;;;5.08;100.00;95513.25;4936788;29;20181;-71
2023/01/09 08:54:19;;;;;;;5.73;4.43;;;;;;;5.05;100.00;95508.50;4953489;29;20683;-72
2023/01/09 08:56:45;;;;;;;3.80;3.70;;;;;;;5.09;100.00;95514.84;4954494;28;20308;-72
2023/01/09 08:59:10;;;;;;;4.23;3.93;;;;;;;5.20;100.00;95512.25;4955123;29;20193;-72
2023/01/09 09:01:37;;;;;;;5.03;4.73;;;;;;;5.19;100.00;95508.06;4952880;29;20225;-72
2023/01/09 09:04:04;;;;;;;4.30;4.07;;;;;;;5.17;100.00;95510.13;4952046;29;20292;-72
2023/01/09 09:06:30;;;;;;;4.33;4.13;;;;;;;5.35;100.00;95515.19;4945901;29;20189;-72
2023/01/09 09:08:55;;;;;;;4.00;3.73;;;;;;;5.36;100.00;95521.97;4952740;29;20178;-72
2023/01/09 09:11:20;;;;;;;4.47;3.60;;;;;;;5.47;100.00;95519.63;4952929;29;20241;-71
2023/01/09 09:13:46;;;;;;;4.33;3.93;;;;;;;5.56;100.00;95518.28;4952545;29;20597;-72
2023/01/09 09:16:11;;;;;;;3.63;3.43;;;;;;;5.65;100.00;95515.09;4952856;29;20197;-72
2023/01/09 09:18:36;;;;;;;4.27;3.97;;;;;;;5.57;100.00;95504.28;4953853;29;20182;-72
2023/01/09 09:21:01;;;;;;;4.83;3.93;;;;;;;5.69;100.00;95508.44;4946555;28;20178;-72
2023/01/09 09:23:27;;;;;;;3.97;3.70;;;;;;;5.54;100.00;95505.50;4936573;29;20208;-71
2023/01/09 09:25:52;;;;;;;2.93;2.80;;;;;;;5.64;100.00;95513.53;4951942;29;20185;-73
2023/01/09 09:28:18;;;;;;;3.90;3.60;;;;;;;5.73;100.00;95512.19;4952787;29;20545;-72
2023/01/09 09:30:43;;;;;;;4.67;3.50;;;;;;;5.86;100.00;95514.53;4936040;29;20197;-72
2023/01/09 09:33:08;;;;;;;3.70;3.40;;;;;;;5.91;100.00;95520.91;4953123;29;20212;-72
2023/01/09 09:35:34;;;;;;;3.67;3.40;;;;;;;5.99;100.00;95518.72;4935967;29;20246;-72
2023/01/09 09:38:01;;;;;;;3.93;3.73;;;;;;;5.98;100.00;95509.34;4953341;29;20208;-72
2023/01/09 09:40:35;;;;;;;5.20;3.97;;;;;;;6.05;100.00;95517.03;4953385;29;20178;-72
2023/01/09 09:46:28;;;;;;;6.43;5.93;;;;;;;6.18;100.00;95527.97;4956580;29;20225;-72
2023/01/09 09:49:06;;;;;;;6.83;6.27;;;;;;;6.25;100.00;95526.00;4937958;29;20727;-73
2023/01/09 09:51:45;;;;;;;6.00;5.10;;;;;;;6.36;100.00;95542.63;4937510;29;20209;-71
2023/01/09 09:54:19;;;;;;;5.97;4.37;;;;;;;6.50;100.00;95537.94;4920260;29;20264;-71
2023/01/09 09:56:50;;;;;;;4.53;4.13;;;;;;;6.70;100.00;95543.53;4936777;29;20310;-71
2023/01/09 09:59:21;;;;;;;5.33;4.30;;;;;;;6.80;100.00;95543.69;4937250;29;20192;-71
2023/01/09 10:02:07;;;;;;;7.10;6.53;;;;;;;7.02;99.75;95547.22;4937059;29;20259;-72
2023/01/09 10:04:38;;;;;;;4.50;3.83;;;;;;;7.06;100.00;95543.16;4936393;29;20597;-71
2023/01/09 10:07:16;;;;;;;11.23;10.30;;;;;;;7.19;97.40;95528.25;4937117;29;20189;-71
2023/01/09 10:09:50;;;;;;;7.80;7.30;;;;;;;7.22;97.83;95533.75;4937268;29;20253;-71
2023/01/09 10:12:15;;;;;;;4.80;3.77;;;;;;;7.32;96.71;95538.34;4937082;29;20217;-71
2023/01/09 10:14:40;;;;;;;5.37;4.80;;;;;;;7.22;95.54;95515.53;4936934;29;20202;-71
2023/01/09 10:17:08;;;;;;;4.97;4.57;;;;;;;7.25;96.20;95517.66;4936361;29;20186;-71
2023/01/09 10:19:58;;;;;;;5.90;5.50;;;;;;;7.00;96.93;95512.81;4943368;28;20527;-71
2023/01/09 10:22:33;;;;;;;7.00;6.50;;;;;;;6.95;96.57;95506.75;4955943;29;20241;-71
2023/01/09 10:25:04;;;;;;;8.30;7.80;;;;;;;6.75;96.65;95506.38;4943825;29;20247;-73
2023/01/09 10:27:57;;;;;;;9.33;8.60;;;;;;;6.99;97.68;95510.44;4938564;29;20333;-72
2023/01/09 10:30:25;;;;;;;8.53;8.07;;;;;;;7.21;95.50;95506.13;4955566;29;20256;-72
2023/01/09 10:33:15;;;;;;;8.80;8.13;;;;;;;7.28;95.97;95509.38;4955710;29;20212;-72
2023/01/09 10:35:49;;;;;;;6.83;6.23;;;;;;;7.11;97.17;95508.56;4954679;29;20185;-72
2023/01/09 10:38:21;;;;;;;5.47;5.03;;;;;;;7.09;95.68;95510.59;4955893;29;20181;-72
2023/01/09 10:40:56;;;;;;;4.60;4.00;;;;;;;7.09;94.91;95503.59;4955505;29;20177;-72
2023/01/09 10:43:28;;;;;;;6.50;5.70;;;;;;;6.98;96.35;95509.66;4938228;29;20212;-72
2023/01/09 10:45:58;;;;;;;4.13;3.37;;;;;;;7.02;96.50;95512.59;4955585;29;20180;-73
2023/01/09 10:48:36;;;;;;;4.23;3.83;;;;;;;7.05;96.13;95507.69;4954487;29;20173;-73
2023/01/09 10:51:17;;;;;;;6.27;4.13;;;;;;;7.14;95.87;95510.69;4936612;29;20273;-73
2023/01/09 10:53:49;;;;;;;4.27;3.77;;;;;;;7.18;95.49;95511.03;4946885;29;20566;-72
2023/01/09 10:56:24;;;;;;;5.67;5.27;;;;;;;7.19;97.05;95505.56;4954585;28;20245;-73
2023/01/09 10:58:51;;;;;;;6.40;3.60;;;;;;;7.36;98.44;95508.94;4955508;29;20197;-73
2023/01/09 11:01:29;;;;;;;5.20;3.80;;;;;;;7.06;100.00;95506.69;4955287;29;20260;-71
2023/01/09 11:03:57;;;;;;;5.60;5.10;;;;;;;7.12;97.98;95491.91;4954635;29;20181;-71
2023/01/09 11:06:31;;;;;;;5.60;5.20;;;;;;;7.19;97.75;95496.97;4955326;29;20173;-71
2023/01/09 11:08:59;;;;;;;4.17;3.63;;;;;;;7.14;98.56;95494.25;4956799;29;20178;-71
2023/01/09 11:11:39;;;;;;;3.67;2.77;;;;;;;7.18;99.13;95496.19;4960151;29;20193;-71
2023/01/09 11:14:14;;;;;;;4.00;3.70;;;;;;;7.10;100.00;95499.16;4958204;29;20224;-71
2023/01/09 11:16:58;;;;;;;3.40;3.20;;;;;;;7.19;99.43;95500.34;4955193;29;20173;-71
2023/01/09 11:19:25;;;;;;;5.07;3.30;;;;;;;7.27;98.32;95489.53;4958296;28;20224;-71
2023/01/09 11:22:08;;;;;;;3.33;3.00;;;;;;;7.32;97.74;95502.66;4955341;29;20285;-72
2023/01/09 11:24:33;;;;;;;5.80;5.40;;;;;;;7.39;96.28;95487.66;4954797;29;20173;-73
2023/01/09 11:27:11;;;;;;;30.23;28.40;;;;;;;7.37;97.73;95488.91;4954602;29;20291;-72
2023/01/09 11:29:37;;;;;;;6.13;5.63;;;;;;;7.57;96.15;95480.59;4937675;29;20209;-72
2023/01/09 11:32:03;;;;;;;6.10;5.57;;;;;;;7.60;96.34;95477.50;4954454;29;20228;-72
2023/01/09 11:34:34;;;;;;;6.83;5.40;;;;;;;7.42;94.81;95470.72;4954575;29;20561;-72
2023/01/09 11:37:03;;;;;;;5.00;4.60;;;;;;;7.41;95.41;95484.81;4954572;29;20197;-72
2023/01/09 11:39:32;;;;;;;6.27;5.67;;;;;;;7.40;95.14;95478.81;4954259;29;20181;-72
2023/01/09 11:42:00;;;;;;;7.00;5.73;;;;;;;7.55;95.09;95480.03;4953989;29;20703;-73
2023/01/09 11:44:29;;;;;;;4.10;3.70;;;;;;;7.64;93.72;95474.16;4954895;29;20186;-72
2023/01/09 11:46:54;;;;;;;6.00;5.20;;;;;;;7.67;92.50;95478.13;4953390;29;20189;-72
2023/01/09 11:49:25;;;;;;;7.27;6.70;;;;;;;7.72;92.55;95470.38;4952575;29;20192;-72
2023/01/09 11:52:14;;;;;;;10.10;9.30;;;;;;;7.70;91.82;95462.78;4952161;29;20208;-72
2023/01/09 11:54:46;;;;;;;11.57;10.57;;;;;;;7.81;91.89;95464.50;4934929;29;20252;-73